createdAt,value
2019-02-17T00:00:03.275Z,21.40
2019-02-17T00:01:03.267Z,21.40
2019-02-17T00:02:03.436Z,18.90
2019-02-17T00:03:03.244Z,21.10
2019-02-17T00:04:03.231Z,21.30
2019-02-17T00:05:03.299Z,17.40
2019-02-17T00:06:03.210Z,16.20
2019-02-17T00:07:03.205Z,18.10
2019-02-17T00:08:03.203Z,19.80
2019-02-17T00:09:03.186Z,18.20
2019-02-17T00:10:03.169Z,19.30
2019-02-17T00:11:03.155Z,19.70
2019-02-17T00:12:03.149Z,19.70
2019-02-17T00:13:03.155Z,19.00
2019-02-17T00:14:03.124Z,18.20
2019-02-17T00:15:03.113Z,17.70
2019-02-17T00:16:03.153Z,21.80
2019-02-17T00:17:03.095Z,24.30
2019-02-17T00:18:03.112Z,22.90
2019-02-17T00:19:03.172Z,23.20
2019-02-17T00:20:03.067Z,21.50
2019-02-17T00:21:03.056Z,22.70
2019-02-17T00:22:03.038Z,21.50
2019-02-17T00:23:03.040Z,20.10
2019-02-17T00:24:03.016Z,25.40
2019-02-17T00:25:03.007Z,21.10
2019-02-17T00:26:03.096Z,20.60
2019-02-17T00:27:02.998Z,22.20
2019-02-17T00:28:03.000Z,22.80
2019-02-17T00:29:02.966Z,18.20
2019-02-17T00:30:02.954Z,22.60
2019-02-17T00:31:02.966Z,21.00
2019-02-17T00:32:02.932Z,20.30
2019-02-17T00:33:03.025Z,20.90
2019-02-17T00:34:02.908Z,21.10
2019-02-17T00:35:02.908Z,20.00
2019-02-17T00:36:02.891Z,21.90
2019-02-17T00:37:02.896Z,20.70
2019-02-17T00:38:02.897Z,18.80
2019-02-17T00:39:02.877Z,19.30
2019-02-17T00:40:02.921Z,21.70
2019-02-17T00:41:02.843Z,17.50
2019-02-17T00:42:02.822Z,19.50
2019-02-17T00:43:02.811Z,20.50
2019-02-17T00:44:02.811Z,20.00
2019-02-17T00:45:02.789Z,18.50
2019-02-17T00:46:02.777Z,17.40
2019-02-17T00:47:02.848Z,17.70
2019-02-17T00:48:02.763Z,19.20
2019-02-17T00:49:02.765Z,19.00
2019-02-17T00:50:02.743Z,19.80
2019-02-17T00:51:02.726Z,20.50
2019-02-17T00:52:02.720Z,19.40
2019-02-17T00:53:02.702Z,18.60
2019-02-17T00:54:02.705Z,18.70
2019-02-17T00:55:02.683Z,19.90
2019-02-17T00:56:02.684Z,19.90
2019-02-17T00:57:02.668Z,19.90
2019-02-17T00:58:02.651Z,22.00
2019-02-17T00:59:09.596Z,21.80
2019-02-17T01:00:03.633Z,20.60
2019-02-17T01:01:02.634Z,19.20
2019-02-17T01:02:02.614Z,21.70
2019-02-17T01:03:02.599Z,18.40
2019-02-17T01:04:02.600Z,21.70
2019-02-17T01:05:02.577Z,20.80
2019-02-17T01:06:02.563Z,19.50
2019-02-17T01:07:02.564Z,18.80
2019-02-17T01:08:02.544Z,21.30
2019-02-17T01:09:02.566Z,20.60
2019-02-17T01:10:02.520Z,21.40
2019-02-17T01:11:02.512Z,20.70
2019-02-17T01:12:02.500Z,19.50
2019-02-17T01:13:02.492Z,23.70
2019-02-17T01:14:02.492Z,21.80
2019-02-17T01:15:02.470Z,22.20
2019-02-17T01:16:02.455Z,19.60
2019-02-17T01:17:02.454Z,22.40
2019-02-17T01:18:02.440Z,19.80
2019-02-17T01:19:02.446Z,22.10
2019-02-17T01:20:02.418Z,22.40
2019-02-17T01:21:02.406Z,19.00
2019-02-17T01:22:02.389Z,21.80
2019-02-17T01:23:02.381Z,21.30
2019-02-17T01:24:02.387Z,21.10
2019-02-17T01:25:02.363Z,20.30
2019-02-17T01:26:02.359Z,19.70
2019-02-17T01:27:02.343Z,19.40
2019-02-17T01:28:02.327Z,21.70
2019-02-17T01:29:02.345Z,21.60
2019-02-17T01:30:02.309Z,19.80
2019-02-17T01:31:02.294Z,17.00
2019-02-17T01:32:02.300Z,19.70
2019-02-17T01:33:02.272Z,18.60
2019-02-17T01:34:02.289Z,20.40
2019-02-17T01:35:02.256Z,19.10
2019-02-17T01:36:02.250Z,15.30
2019-02-17T01:37:02.230Z,16.90
2019-02-17T01:38:02.223Z,16.60
2019-02-17T01:39:02.207Z,16.40
2019-02-17T01:40:02.215Z,15.60
2019-02-17T01:41:02.190Z,16.20
2019-02-17T01:42:02.174Z,18.30
2019-02-17T01:43:02.246Z,17.20
2019-02-17T01:44:02.153Z,16.80
2019-02-17T01:45:02.160Z,16.10
2019-02-17T01:46:02.136Z,14.70
2019-02-17T01:47:02.131Z,17.10
2019-02-17T01:48:02.112Z,16.40
2019-02-17T01:49:02.106Z,16.20
2019-02-17T01:50:02.101Z,15.40
2019-02-17T01:51:02.081Z,16.80
2019-02-17T01:52:02.066Z,15.10
2019-02-17T01:53:02.068Z,17.70
2019-02-17T01:54:02.045Z,16.50
2019-02-17T01:55:02.049Z,14.40
2019-02-17T01:56:02.023Z,17.00
2019-02-17T01:57:02.013Z,15.30
2019-02-17T01:58:02.007Z,14.90
2019-02-17T01:59:02.000Z,13.70
2019-02-17T02:00:01.995Z,14.50
2019-02-17T02:01:01.969Z,13.90
2019-02-17T02:02:01.960Z,14.20
2019-02-17T02:03:01.952Z,13.90
2019-02-17T02:04:01.943Z,14.20
2019-02-17T02:05:01.965Z,16.60
2019-02-17T02:06:01.913Z,16.20
2019-02-17T02:07:01.912Z,14.40
2019-02-17T02:08:01.892Z,13.20
2019-02-17T02:09:01.889Z,15.10
2019-02-17T02:10:01.890Z,14.80
2019-02-17T02:11:01.861Z,14.50
2019-02-17T02:12:01.869Z,13.60
2019-02-17T02:13:01.836Z,15.40
2019-02-17T02:14:01.833Z,14.00
2019-02-17T02:15:01.829Z,15.20
2019-02-17T02:16:01.820Z,15.00
2019-02-17T02:17:01.800Z,14.70
2019-02-17T02:18:01.832Z,15.10
2019-02-17T02:19:01.788Z,14.50
2019-02-17T02:20:01.784Z,14.70
2019-02-17T02:21:01.762Z,15.40
2019-02-17T02:22:01.743Z,13.90
2019-02-17T02:23:01.732Z,14.40
2019-02-17T02:24:01.724Z,12.90
2019-02-17T02:25:01.723Z,15.20
2019-02-17T02:26:01.700Z,13.70
2019-02-17T02:27:01.696Z,13.30
2019-02-17T02:28:01.678Z,13.30
2019-02-17T02:29:01.666Z,15.10
2019-02-17T02:30:01.751Z,13.20
2019-02-17T02:31:01.677Z,14.10
2019-02-17T02:32:01.671Z,13.10
2019-02-17T02:33:01.641Z,13.50
2019-02-17T02:34:01.612Z,15.30
2019-02-17T02:35:01.623Z,17.10
2019-02-17T02:36:01.603Z,15.10
2019-02-17T02:37:01.586Z,15.30
2019-02-17T02:38:01.570Z,14.30
2019-02-17T02:39:01.573Z,16.30
2019-02-17T02:40:01.555Z,14.20
2019-02-17T02:41:01.554Z,14.50
2019-02-17T02:42:01.535Z,15.30
2019-02-17T02:43:01.538Z,16.70
2019-02-17T02:44:01.504Z,17.80
2019-02-17T02:45:01.521Z,15.20
2019-02-17T02:46:01.494Z,14.80
2019-02-17T02:47:01.478Z,15.30
2019-02-17T02:48:01.470Z,13.80
2019-02-17T02:49:01.469Z,15.40
2019-02-17T02:50:01.544Z,14.80
2019-02-17T02:51:01.447Z,14.90
2019-02-17T02:52:01.420Z,16.10
2019-02-17T02:53:01.416Z,15.50
2019-02-17T02:54:01.408Z,15.50
2019-02-17T02:55:01.389Z,15.50
2019-02-17T02:56:01.392Z,16.30
2019-02-17T02:57:01.371Z,16.30
2019-02-17T02:58:01.361Z,14.80
2019-02-17T02:59:01.358Z,13.90
2019-02-17T03:00:01.347Z,15.70
2019-02-17T03:01:01.347Z,14.90
2019-02-17T03:02:01.318Z,15.70
2019-02-17T03:03:01.302Z,15.90
2019-02-17T03:04:01.293Z,15.10
2019-02-17T03:05:01.280Z,15.10
2019-02-17T03:06:01.544Z,14.20
2019-02-17T03:07:01.269Z,14.00
2019-02-17T03:08:01.251Z,16.10
2019-02-17T03:09:01.990Z,14.80
2019-02-17T03:10:01.232Z,13.90
2019-02-17T03:11:01.259Z,16.20
2019-02-17T03:12:01.224Z,15.50
2019-02-17T03:13:01.254Z,15.30
2019-02-17T03:14:01.257Z,16.70
2019-02-17T03:15:01.174Z,15.70
2019-02-17T03:16:01.200Z,16.80
2019-02-17T03:17:01.987Z,15.60
2019-02-17T03:18:01.144Z,16.70
2019-02-17T03:19:01.146Z,16.00
2019-02-17T03:20:01.121Z,14.20
2019-02-17T03:21:01.144Z,17.10
2019-02-17T03:22:01.114Z,16.80
2019-02-17T03:23:01.092Z,14.70
2019-02-17T03:24:01.081Z,14.00
2019-02-17T03:25:01.073Z,14.30
2019-02-17T03:26:01.073Z,15.00
2019-02-17T03:27:01.048Z,15.60
2019-02-17T03:28:01.036Z,18.30
2019-02-17T03:29:01.044Z,14.50
2019-02-17T03:30:04.822Z,15.70
2019-02-17T03:31:01.066Z,14.60
2019-02-17T03:32:01.004Z,15.50
2019-02-17T03:33:00.987Z,15.20
2019-02-17T03:34:00.975Z,15.70
2019-02-17T03:35:00.960Z,14.20
2019-02-17T03:36:00.960Z,14.90
2019-02-17T03:37:00.943Z,14.80
2019-02-17T03:38:00.931Z,15.90
2019-02-17T03:39:00.921Z,15.70
2019-02-17T03:40:00.998Z,17.30
2019-02-17T03:41:01.245Z,15.20
2019-02-17T03:42:00.892Z,15.70
2019-02-17T03:43:00.878Z,16.80
2019-02-17T03:44:00.888Z,13.40
2019-02-17T03:45:00.856Z,15.60
2019-02-17T03:46:00.855Z,15.40
2019-02-17T03:47:00.850Z,15.80
2019-02-17T03:48:00.898Z,16.10
2019-02-17T03:49:00.813Z,16.70
2019-02-17T03:50:00.808Z,17.10
2019-02-17T03:51:00.795Z,16.80
2019-02-17T03:52:00.798Z,14.40
2019-02-17T03:53:00.775Z,16.00
2019-02-17T03:54:00.773Z,16.50
2019-02-17T03:55:00.745Z,16.10
2019-02-17T03:56:00.767Z,15.70
2019-02-17T03:57:00.737Z,17.50
2019-02-17T03:58:00.718Z,17.10
2019-02-17T03:59:00.705Z,15.10
2019-02-17T04:00:00.698Z,14.70
2019-02-17T04:01:00.683Z,16.30
2019-02-17T04:02:00.701Z,17.70
2019-02-17T04:03:00.666Z,16.70
2019-02-17T04:04:00.658Z,16.90
2019-02-17T04:05:00.643Z,14.10
2019-02-17T04:06:00.631Z,15.60
2019-02-17T04:07:00.635Z,16.60
2019-02-17T04:08:00.611Z,17.00
2019-02-17T04:09:00.602Z,16.50
2019-02-17T04:10:00.606Z,15.80
2019-02-17T04:11:00.583Z,15.40
2019-02-17T04:12:00.576Z,17.60
2019-02-17T04:13:00.558Z,16.60
2019-02-17T04:14:00.545Z,16.50
2019-02-17T04:15:00.534Z,15.90
2019-02-17T04:16:00.523Z,16.40
2019-02-17T04:17:00.574Z,17.00
2019-02-17T04:18:00.505Z,16.40
2019-02-17T04:19:00.495Z,16.20
2019-02-17T04:20:00.479Z,18.40
2019-02-17T04:21:00.472Z,17.30
2019-02-17T04:22:00.478Z,18.00
2019-02-17T04:23:00.448Z,17.20
2019-02-17T04:24:00.491Z,16.50
2019-02-17T04:25:00.430Z,18.40
2019-02-17T04:26:00.429Z,18.70
2019-02-17T04:27:00.420Z,18.60
2019-02-17T04:28:00.421Z,17.30
2019-02-17T04:29:00.401Z,18.40
2019-02-17T04:30:00.532Z,19.90
2019-02-17T04:31:00.364Z,17.90
2019-02-17T04:32:00.377Z,16.20
2019-02-17T04:33:00.347Z,16.20
2019-02-17T04:34:00.327Z,16.00
2019-02-17T04:35:00.317Z,14.80
2019-02-17T04:36:00.308Z,15.60
2019-02-17T04:37:00.390Z,16.10
2019-02-17T04:38:00.322Z,17.00
2019-02-17T04:39:00.285Z,17.70
2019-02-17T04:40:00.422Z,16.00
2019-02-17T04:41:00.260Z,16.00
2019-02-17T04:42:00.255Z,16.90
2019-02-17T04:43:00.299Z,15.50
2019-02-17T04:44:00.230Z,15.00
2019-02-17T04:45:00.350Z,15.80
2019-02-17T04:46:00.209Z,16.20
2019-02-17T04:47:00.213Z,14.40
2019-02-17T04:48:00.180Z,15.00
2019-02-17T04:49:00.167Z,14.40
2019-02-17T04:50:00.236Z,15.80
2019-02-17T04:51:00.211Z,16.00
2019-02-17T04:52:00.146Z,15.70
2019-02-17T04:53:00.139Z,14.50
2019-02-17T04:54:00.113Z,16.80
2019-02-17T04:55:00.286Z,15.40
2019-02-17T04:56:00.105Z,16.70
2019-02-17T04:57:00.117Z,16.50
2019-02-17T04:58:00.144Z,17.90
2019-02-17T04:59:00.064Z,17.50
2019-02-17T05:00:00.053Z,15.90
2019-02-17T05:01:00.043Z,16.00
2019-02-17T05:02:00.036Z,12.90
2019-02-17T05:03:00.031Z,15.20
2019-02-17T05:04:00.010Z,13.30
2019-02-17T05:05:00.006Z,15.50
2019-02-17T05:06:00.007Z,14.10
2019-02-17T05:06:59.981Z,16.60
2019-02-17T05:07:59.985Z,15.70
2019-02-17T05:08:59.958Z,14.00
2019-02-17T05:09:59.951Z,15.60
2019-02-17T05:10:59.934Z,12.60
2019-02-17T05:11:59.982Z,14.30
2019-02-17T05:12:59.938Z,13.40
2019-02-17T05:13:59.912Z,16.00
2019-02-17T05:14:59.891Z,14.50
2019-02-17T05:15:59.886Z,16.90
2019-02-17T05:16:59.891Z,13.80
2019-02-17T05:17:59.873Z,14.40
2019-02-17T05:18:59.858Z,16.40
2019-02-17T05:19:59.852Z,14.40
2019-02-17T05:20:59.825Z,14.40
2019-02-17T05:21:59.817Z,13.80
2019-02-17T05:22:59.819Z,13.10
2019-02-17T05:23:59.797Z,14.00
2019-02-17T05:24:59.797Z,15.30
2019-02-17T05:25:59.837Z,16.00
2019-02-17T05:26:59.772Z,17.40
2019-02-17T05:27:59.769Z,14.90
2019-02-17T05:28:59.742Z,16.30
2019-02-17T05:29:59.732Z,14.20
2019-02-17T05:30:59.720Z,13.90
2019-02-17T05:31:59.710Z,17.20
2019-02-17T05:32:59.714Z,15.20
2019-02-17T05:33:59.693Z,14.70
2019-02-17T05:34:59.693Z,14.60
2019-02-17T05:35:59.666Z,14.80
2019-02-17T05:36:59.660Z,16.00
2019-02-17T05:37:59.655Z,15.50
2019-02-17T05:38:59.635Z,15.10
2019-02-17T05:39:59.623Z,13.30
2019-02-17T05:40:59.615Z,14.30
2019-02-17T05:41:59.666Z,15.70
2019-02-17T05:42:59.602Z,13.10
2019-02-17T05:43:59.614Z,15.10
2019-02-17T05:44:59.569Z,14.30
2019-02-17T05:45:59.558Z,14.80
2019-02-17T05:46:59.550Z,15.90
2019-02-17T05:47:59.552Z,13.60
2019-02-17T05:48:59.529Z,15.30
2019-02-17T05:49:59.528Z,15.60
2019-02-17T05:50:59.502Z,16.80
2019-02-17T05:51:59.496Z,16.00
2019-02-17T05:52:59.498Z,14.90
2019-02-17T05:53:59.477Z,17.60
2019-02-17T05:54:59.461Z,15.00
2019-02-17T05:55:59.453Z,16.20
2019-02-17T05:56:59.442Z,16.20
2019-02-17T05:57:59.443Z,14.10
2019-02-17T05:58:59.426Z,16.80
2019-02-17T05:59:59.415Z,13.90
2019-02-17T06:01:03.887Z,14.30
2019-02-17T06:02:00.392Z,15.40
2019-02-17T06:02:59.390Z,14.00
2019-02-17T06:03:59.374Z,16.40
2019-02-17T06:04:59.355Z,14.10
2019-02-17T06:05:59.362Z,15.00
2019-02-17T06:06:59.352Z,13.60
2019-02-17T06:07:59.348Z,15.80
2019-02-17T06:08:59.317Z,15.80
2019-02-17T06:09:59.306Z,16.90
2019-02-17T06:10:59.294Z,13.80
2019-02-17T06:11:59.287Z,15.20
2019-02-17T06:12:59.279Z,15.40
2019-02-17T06:13:59.259Z,12.30
2019-02-17T06:14:59.250Z,14.60
2019-02-17T06:15:59.237Z,14.70
2019-02-17T06:16:59.233Z,12.90
2019-02-17T06:17:59.257Z,14.50
2019-02-17T06:18:59.206Z,13.60
2019-02-17T06:19:59.196Z,13.70
2019-02-17T06:20:59.197Z,13.80
2019-02-17T06:21:59.181Z,14.20
2019-02-17T06:22:59.164Z,16.20
2019-02-17T06:23:59.162Z,12.50
2019-02-17T06:24:59.145Z,13.40
2019-02-17T06:25:59.131Z,14.90
2019-02-17T06:26:59.118Z,14.90
2019-02-17T06:27:59.109Z,13.40
2019-02-17T06:29:00.009Z,16.60
2019-02-17T06:29:59.088Z,14.20
2019-02-17T06:30:59.076Z,16.50
2019-02-17T06:31:59.081Z,15.30
2019-02-17T06:32:59.059Z,14.70
2019-02-17T06:33:59.060Z,13.60
2019-02-17T06:34:59.038Z,14.60
2019-02-17T06:35:59.028Z,13.60
2019-02-17T06:36:59.017Z,16.50
2019-02-17T06:37:59.005Z,13.60
2019-02-17T06:38:59.009Z,13.10
2019-02-17T06:39:58.983Z,14.60
2019-02-17T06:40:58.976Z,13.00
2019-02-17T06:41:58.959Z,13.30
2019-02-17T06:42:58.948Z,11.40
2019-02-17T06:43:58.950Z,14.50
2019-02-17T06:44:59.560Z,12.50
2019-02-17T06:45:58.916Z,13.90
2019-02-17T06:46:58.936Z,13.10
2019-02-17T06:47:58.894Z,13.70
2019-02-17T06:48:58.899Z,15.10
2019-02-17T06:49:58.877Z,13.40
2019-02-17T06:50:58.884Z,14.60
2019-02-17T06:51:58.854Z,15.50
2019-02-17T06:52:58.845Z,14.80
2019-02-17T06:53:58.864Z,13.90
2019-02-17T06:54:58.823Z,14.60
2019-02-17T06:55:58.808Z,13.40
2019-02-17T06:56:58.814Z,14.40
2019-02-17T06:57:58.793Z,12.80
2019-02-17T06:58:58.791Z,13.70
2019-02-17T06:59:58.767Z,12.50
2019-02-17T07:00:58.753Z,14.40
2019-02-17T07:01:58.742Z,16.70
2019-02-17T07:02:58.731Z,16.00
2019-02-17T07:03:58.746Z,16.90
2019-02-17T07:04:58.718Z,17.40
2019-02-17T07:05:58.708Z,16.50
2019-02-17T07:06:58.708Z,15.10
2019-02-17T07:07:58.688Z,15.50
2019-02-17T07:08:58.685Z,17.50
2019-02-17T07:09:58.704Z,16.70
2019-02-17T07:10:58.647Z,16.70
2019-02-17T07:11:58.640Z,18.30
2019-02-17T07:12:58.625Z,16.60
2019-02-17T07:13:58.631Z,19.20
2019-02-17T07:14:58.606Z,16.70
2019-02-17T07:15:58.592Z,14.50
2019-02-17T07:16:58.581Z,13.40
2019-02-17T07:17:59.189Z,14.20
2019-02-17T07:18:58.571Z,15.10
2019-02-17T07:19:58.554Z,16.40
2019-02-17T07:20:58.539Z,15.90
2019-02-17T07:21:58.532Z,15.40
2019-02-17T07:22:58.517Z,13.80
2019-02-17T07:23:58.521Z,15.60
2019-02-17T07:24:58.496Z,13.40
2019-02-17T07:25:58.492Z,14.00
2019-02-17T07:26:58.473Z,12.80
2019-02-17T07:27:58.467Z,15.60
2019-02-17T07:28:58.465Z,13.20
2019-02-17T07:29:58.443Z,15.80
2019-02-17T07:30:58.433Z,14.20
2019-02-17T07:31:58.419Z,12.80
2019-02-17T07:32:58.413Z,13.90
2019-02-17T07:33:58.589Z,14.10
2019-02-17T07:34:59.799Z,13.10
2019-02-17T07:35:58.380Z,14.30
2019-02-17T07:36:58.368Z,13.80
2019-02-17T07:37:58.360Z,14.60
2019-02-17T07:38:58.344Z,14.50
2019-02-17T07:39:58.354Z,14.70
2019-02-17T07:40:58.324Z,13.70
2019-02-17T07:41:58.317Z,15.30
2019-02-17T07:42:58.302Z,13.80
2019-02-17T07:43:58.291Z,12.60
2019-02-17T07:44:58.297Z,14.90
2019-02-17T07:45:58.269Z,15.00
2019-02-17T07:46:58.258Z,15.50
2019-02-17T07:47:58.251Z,15.10
2019-02-17T07:48:58.240Z,14.30
2019-02-17T07:49:58.241Z,14.80
2019-02-17T07:50:58.215Z,13.90
2019-02-17T07:51:58.203Z,15.20
2019-02-17T07:52:58.194Z,16.10
2019-02-17T07:53:58.182Z,16.00
2019-02-17T07:54:58.189Z,14.70
2019-02-17T07:55:58.162Z,14.90
2019-02-17T07:56:58.155Z,14.60
2019-02-17T07:57:58.138Z,14.50
2019-02-17T07:58:58.135Z,14.50
2019-02-17T07:59:58.135Z,14.10
2019-02-17T08:00:58.109Z,13.70
2019-02-17T08:01:58.102Z,13.30
2019-02-17T08:02:58.085Z,13.30
2019-02-17T08:03:58.079Z,14.60
2019-02-17T08:04:58.075Z,15.40
2019-02-17T08:05:58.051Z,14.10
2019-02-17T08:06:58.048Z,13.80
2019-02-17T08:07:58.029Z,15.80
2019-02-17T08:08:58.023Z,14.30
2019-02-17T08:09:58.039Z,13.90
2019-02-17T08:11:04.023Z,13.30
2019-02-17T08:11:58.984Z,14.20
2019-02-17T08:12:57.973Z,14.80
2019-02-17T08:13:57.962Z,15.90
2019-02-17T08:14:58.141Z,16.30
2019-02-17T08:15:57.947Z,16.80
2019-02-17T08:16:57.943Z,15.80
2019-02-17T08:17:57.918Z,16.70
2019-02-17T08:18:57.919Z,18.00
2019-02-17T08:19:57.912Z,16.00
2019-02-17T08:20:57.898Z,14.30
2019-02-17T08:21:57.879Z,15.00
2019-02-17T08:22:57.881Z,15.50
2019-02-17T08:23:57.857Z,13.70
2019-02-17T08:24:57.856Z,14.90
2019-02-17T08:25:57.867Z,14.80
2019-02-17T08:26:57.823Z,14.40
2019-02-17T08:27:57.846Z,14.50
2019-02-17T08:28:57.801Z,15.00
2019-02-17T08:29:57.803Z,14.70
2019-02-17T08:30:57.781Z,14.70
2019-02-17T08:31:57.774Z,15.70
2019-02-17T08:32:57.756Z,16.10
2019-02-17T08:33:57.748Z,15.20
2019-02-17T08:34:58.093Z,16.90
2019-02-17T08:35:57.728Z,17.00
2019-02-17T08:36:57.712Z,16.20
2019-02-17T08:37:57.710Z,15.00
2019-02-17T08:38:57.697Z,15.70
2019-02-17T08:39:57.707Z,15.60
2019-02-17T08:40:57.679Z,17.20
2019-02-17T08:41:57.668Z,15.20
2019-02-17T08:42:57.648Z,17.00
2019-02-17T08:43:57.640Z,14.20
2019-02-17T08:44:57.639Z,15.40
2019-02-17T08:45:57.634Z,16.70
2019-02-17T08:46:57.608Z,17.60
2019-02-17T08:47:57.601Z,16.50
2019-02-17T08:48:57.585Z,16.30
2019-02-17T08:49:57.590Z,17.50
2019-02-17T08:50:57.569Z,16.00
2019-02-17T08:51:58.072Z,16.60
2019-02-17T08:52:57.547Z,17.40
2019-02-17T08:53:57.532Z,17.00
2019-02-17T08:54:57.532Z,16.90
2019-02-17T08:55:57.512Z,16.10
2019-02-17T08:56:57.506Z,16.70
2019-02-17T08:57:57.499Z,14.90
2019-02-17T08:58:57.542Z,17.50
2019-02-17T08:59:57.480Z,17.20
2019-02-17T09:00:57.454Z,18.10
2019-02-17T09:02:05.670Z,17.40
2019-02-17T09:02:58.444Z,20.30
2019-02-17T09:03:57.422Z,19.10
2019-02-17T09:04:57.440Z,18.60
2019-02-17T09:05:57.401Z,18.40
2019-02-17T09:06:57.394Z,20.10
2019-02-17T09:07:57.380Z,19.60
2019-02-17T09:08:57.440Z,17.90
2019-02-17T09:09:57.391Z,18.00
2019-02-17T09:10:57.352Z,18.10
2019-02-17T09:11:57.340Z,18.40
2019-02-17T09:12:57.324Z,17.70
2019-02-17T09:13:57.314Z,19.10
2019-02-17T09:14:57.305Z,16.90
2019-02-17T09:15:57.387Z,16.80
2019-02-17T09:16:57.295Z,17.20
2019-02-17T09:17:57.268Z,17.00
2019-02-17T09:18:57.265Z,17.60
2019-02-17T09:19:57.247Z,18.20
2019-02-17T09:20:57.255Z,17.60
2019-02-17T09:21:57.228Z,17.20
2019-02-17T09:22:57.288Z,18.00
2019-02-17T09:23:57.205Z,19.50
2019-02-17T09:24:57.194Z,18.30
2019-02-17T09:25:57.199Z,22.50
2019-02-17T09:26:57.171Z,18.20
2019-02-17T09:27:57.227Z,17.80
2019-02-17T09:28:57.187Z,17.40
2019-02-17T09:29:57.245Z,19.40
2019-02-17T09:30:57.149Z,17.40
2019-02-17T09:31:59.298Z,18.30
2019-02-17T09:32:57.154Z,16.40
2019-02-17T09:33:57.121Z,18.30
2019-02-17T09:34:57.085Z,17.50
2019-02-17T09:35:57.084Z,16.60
2019-02-17T09:36:57.138Z,16.60
2019-02-17T09:37:57.054Z,17.20
2019-02-17T09:38:57.039Z,18.50
2019-02-17T09:39:57.029Z,18.20
2019-02-17T09:40:57.035Z,19.70
2019-02-17T09:41:57.008Z,17.60
2019-02-17T09:42:57.015Z,20.00
2019-02-17T09:43:57.060Z,19.50
2019-02-17T09:44:56.981Z,19.40
2019-02-17T09:45:56.988Z,19.90
2019-02-17T09:46:56.959Z,22.00
2019-02-17T09:47:56.950Z,20.00
2019-02-17T09:48:56.937Z,22.40
2019-02-17T09:49:56.928Z,18.60
2019-02-17T09:50:56.921Z,18.00
2019-02-17T09:51:56.971Z,19.80
2019-02-17T09:52:56.894Z,18.90
2019-02-17T09:53:56.876Z,18.70
2019-02-17T09:54:56.866Z,18.70
2019-02-17T09:55:56.876Z,18.30
2019-02-17T09:56:56.872Z,19.90
2019-02-17T09:57:56.834Z,20.60
2019-02-17T09:58:56.824Z,19.80
2019-02-17T09:59:56.815Z,19.70
2019-02-17T10:00:56.817Z,20.00
2019-02-17T10:01:56.790Z,21.30
2019-02-17T10:02:56.780Z,19.90
2019-02-17T10:03:56.776Z,20.00
2019-02-17T10:04:56.774Z,20.30
2019-02-17T10:05:56.783Z,22.00
2019-02-17T10:06:56.750Z,19.80
2019-02-17T10:07:56.726Z,18.00
2019-02-17T10:08:56.716Z,19.90
2019-02-17T10:09:56.710Z,20.90
2019-02-17T10:10:56.700Z,21.20
2019-02-17T10:11:56.696Z,24.00
2019-02-17T10:12:56.673Z,19.70
2019-02-17T10:13:56.662Z,20.20
2019-02-17T10:14:56.654Z,23.40
2019-02-17T10:15:56.646Z,20.30
2019-02-17T10:16:56.678Z,22.80
2019-02-17T10:17:56.633Z,18.50
2019-02-17T10:18:56.614Z,19.80
2019-02-17T10:19:56.617Z,22.10
2019-02-17T10:20:56.583Z,20.20
2019-02-17T10:21:56.588Z,22.10
2019-02-17T10:22:56.563Z,20.10
2019-02-17T10:23:56.608Z,19.60
2019-02-17T10:24:56.550Z,21.80
2019-02-17T10:25:56.731Z,18.70
2019-02-17T10:26:56.537Z,19.40
2019-02-17T10:27:56.519Z,20.20
2019-02-17T10:28:56.506Z,21.40
2019-02-17T10:29:56.487Z,22.70
2019-02-17T10:30:56.486Z,20.20
2019-02-17T10:31:56.571Z,19.60
2019-02-17T10:32:56.456Z,21.70
2019-02-17T10:33:56.446Z,22.00
2019-02-17T10:34:56.434Z,22.00
2019-02-17T10:35:56.422Z,22.90
2019-02-17T10:36:56.426Z,19.80
2019-02-17T10:37:56.462Z,19.90
2019-02-17T10:38:58.405Z,21.00
2019-02-17T10:39:56.464Z,22.60
2019-02-17T10:40:56.369Z,20.20
2019-02-17T10:41:56.373Z,20.60
2019-02-17T10:42:56.349Z,20.30
2019-02-17T10:43:56.337Z,20.80
2019-02-17T10:44:56.330Z,20.10
2019-02-17T10:45:56.317Z,20.90
2019-02-17T10:46:56.321Z,21.30
2019-02-17T10:47:56.298Z,19.70
2019-02-17T10:48:56.280Z,20.90
2019-02-17T10:49:56.322Z,21.90
2019-02-17T10:50:56.259Z,21.20
2019-02-17T10:51:56.268Z,20.70
2019-02-17T10:52:56.237Z,22.50
2019-02-17T10:53:56.349Z,21.10
2019-02-17T10:54:56.213Z,20.50
2019-02-17T10:55:56.236Z,23.70
2019-02-17T10:56:56.213Z,21.40
2019-02-17T10:57:56.186Z,23.40
2019-02-17T10:58:56.170Z,20.90
2019-02-17T10:59:56.158Z,23.10
2019-02-17T11:00:56.150Z,23.00
2019-02-17T11:01:56.151Z,20.60
2019-02-17T11:02:56.126Z,22.10
2019-02-17T11:03:56.114Z,22.80
2019-02-17T11:04:56.116Z,23.30
2019-02-17T11:05:56.098Z,23.00
2019-02-17T11:06:56.095Z,22.90
2019-02-17T11:07:56.089Z,23.60
2019-02-17T11:08:56.061Z,22.80
2019-02-17T11:09:56.049Z,24.80
2019-02-17T11:10:56.049Z,25.50
2019-02-17T11:11:56.052Z,22.60
2019-02-17T11:12:56.027Z,23.00
2019-02-17T11:13:56.012Z,22.40
2019-02-17T11:14:55.998Z,22.40
2019-02-17T11:15:55.993Z,22.80
2019-02-17T11:16:56.020Z,23.50
2019-02-17T11:17:55.965Z,23.80
2019-02-17T11:18:55.954Z,23.70
2019-02-17T11:19:55.942Z,22.80
2019-02-17T11:20:55.934Z,25.50
2019-02-17T11:21:55.936Z,24.80
2019-02-17T11:22:55.910Z,23.80
2019-02-17T11:23:55.901Z,25.70
2019-02-17T11:24:57.711Z,24.30
2019-02-17T11:25:55.874Z,23.60
2019-02-17T11:26:55.917Z,22.10
2019-02-17T11:27:55.858Z,23.80
2019-02-17T11:28:55.887Z,24.00
2019-02-17T11:29:55.835Z,22.60
2019-02-17T11:30:55.820Z,22.20
2019-02-17T11:31:55.820Z,26.20
2019-02-17T11:32:58.218Z,23.20
2019-02-17T11:33:55.796Z,23.90
2019-02-17T11:34:55.778Z,24.00
2019-02-17T11:35:55.766Z,24.80
2019-02-17T11:36:55.760Z,24.50
2019-02-17T11:37:55.769Z,23.60
2019-02-17T11:38:55.753Z,24.10
2019-02-17T11:39:55.743Z,25.30
2019-02-17T11:40:55.717Z,23.40
2019-02-17T11:41:55.702Z,24.10
2019-02-17T11:42:55.707Z,25.20
2019-02-17T11:43:55.686Z,25.00
2019-02-17T11:44:55.671Z,24.60
2019-02-17T11:45:55.665Z,24.00
2019-02-17T11:46:55.661Z,26.70
2019-02-17T11:47:55.677Z,27.60
2019-02-17T11:48:55.645Z,24.30
2019-02-17T11:49:55.627Z,25.30
2019-02-17T11:50:55.614Z,26.50
2019-02-17T11:51:55.596Z,27.00
2019-02-17T11:52:55.605Z,25.50
2019-02-17T11:53:55.573Z,27.20
2019-02-17T11:54:55.687Z,24.90
2019-02-17T11:55:55.567Z,25.30
2019-02-17T11:56:55.552Z,25.80
2019-02-17T11:57:55.550Z,24.40
2019-02-17T11:58:55.535Z,24.60
2019-02-17T11:59:55.514Z,23.10
2019-02-17T12:00:55.500Z,25.40
2019-02-17T12:01:55.494Z,26.00
2019-02-17T12:02:55.523Z,23.00
2019-02-17T12:03:55.477Z,25.80
2019-02-17T12:04:55.462Z,25.40
2019-02-17T12:05:55.446Z,23.90
2019-02-17T12:06:55.431Z,25.10
2019-02-17T12:07:55.447Z,25.90
2019-02-17T12:08:55.421Z,26.90
2019-02-17T12:09:55.405Z,27.10
2019-02-17T12:10:55.392Z,26.20
2019-02-17T12:11:55.381Z,25.50
2019-02-17T12:12:55.382Z,25.90
2019-02-17T12:13:55.361Z,24.70
2019-02-17T12:14:55.355Z,24.30
2019-02-17T12:15:55.335Z,26.20
2019-02-17T12:16:55.333Z,26.40
2019-02-17T12:17:55.330Z,26.10
2019-02-17T12:18:55.335Z,24.70
2019-02-17T12:19:55.296Z,25.80
2019-02-17T12:20:55.343Z,27.60
2019-02-17T12:21:55.336Z,26.10
2019-02-17T12:22:55.327Z,26.70
2019-02-17T12:23:55.257Z,24.50
2019-02-17T12:24:55.245Z,25.40
2019-02-17T12:25:55.233Z,26.50
2019-02-17T12:26:55.214Z,25.90
2019-02-17T12:27:55.219Z,25.50
2019-02-17T12:28:55.195Z,27.20
2019-02-17T12:29:55.181Z,25.90
2019-02-17T12:30:55.176Z,25.20
2019-02-17T12:31:55.168Z,26.80
2019-02-17T12:32:55.166Z,25.00
2019-02-17T12:33:55.140Z,26.20
2019-02-17T12:34:55.127Z,27.80
2019-02-17T12:35:55.164Z,25.90
2019-02-17T12:36:55.111Z,25.90
2019-02-17T12:37:55.127Z,25.00
2019-02-17T12:38:55.118Z,27.00
2019-02-17T12:39:55.079Z,25.90
2019-02-17T12:40:55.065Z,28.70
2019-02-17T12:41:55.053Z,29.20
2019-02-17T12:42:55.060Z,26.00
2019-02-17T12:43:55.034Z,28.90
2019-02-17T12:44:57.076Z,26.90
2019-02-17T12:45:55.041Z,29.50
2019-02-17T12:46:55.001Z,26.60
2019-02-17T12:47:57.911Z,26.30
2019-02-17T12:48:54.980Z,25.60
2019-02-17T12:49:55.021Z,24.80
2019-02-17T12:50:54.966Z,28.10
2019-02-17T12:51:54.942Z,28.30